Airlie, Virginia
Current Conditions -  °F | °C
As of 6:55 AM on Friday 19 Dec 2014 (Local Time) from KHWY Reporting Station
Overcast Overcast  
Wind Chill: 26°   Ceiling: 10000
Heat Index: 31°   Visibility: 10mi
Dew Point: 29°   Wind: 5mph
Humidity: 95%   Direction: 10°N
Pressure: 30.13"   Gusts: NA
Location:  38.6876°N, 77.819°W
Report Text: KHWY 191155Z AUTO 01004KT 10SM OVC100 M01/M01 A3013 RMK AO2 T10081015 10015 21015
Loading
Personal Weather Stations






























Interactive Weather Map New forecast layout! Learn more

10-Day Weather Forecast

Advertisements
Track Severe Weather on mobile